createdAt,value
2018-02-04T00:02:20.379Z,4.70
2018-02-04T00:04:48.118Z,6.53
2018-02-04T00:07:16.166Z,5.73
2018-02-04T00:09:44.396Z,5.50
2018-02-04T00:12:12.366Z,5.67
2018-02-04T00:14:40.885Z,5.30
2018-02-04T00:17:08.678Z,8.67
2018-02-04T00:19:37.263Z,5.70
2018-02-04T00:22:04.962Z,5.47
2018-02-04T00:24:32.975Z,5.00
2018-02-04T00:27:01.598Z,6.23
2018-02-04T00:29:30.171Z,5.40
2018-02-04T00:31:58.561Z,5.93
2018-02-04T00:34:27.141Z,4.67
2018-02-04T00:36:56.305Z,6.47
2018-02-04T00:39:24.185Z,6.17
2018-02-04T00:41:52.204Z,5.77
2018-02-04T00:44:20.016Z,5.63
2018-02-04T00:47:06.062Z,5.43
2018-02-04T00:49:35.612Z,5.43
2018-02-04T00:52:03.412Z,5.47
2018-02-04T00:54:31.174Z,5.03
2018-02-04T00:56:59.649Z,4.90
2018-02-04T00:59:27.791Z,4.33
2018-02-04T01:01:55.491Z,4.43
2018-02-04T01:04:23.441Z,5.63
2018-02-04T01:06:51.593Z,4.83
2018-02-04T01:09:20.139Z,5.50
2018-02-04T01:11:48.052Z,6.37
2018-02-04T01:14:16.012Z,5.13
2018-02-04T01:16:44.328Z,5.43
2018-02-04T01:19:13.585Z,4.77
2018-02-04T01:21:41.723Z,5.77
2018-02-04T01:24:09.471Z,5.27
2018-02-04T01:26:37.280Z,6.33
2018-02-04T01:29:05.046Z,4.73
2018-02-04T01:31:32.806Z,4.97
2018-02-04T01:34:00.852Z,6.63
2018-02-04T01:36:29.466Z,6.30
2018-02-04T01:38:57.251Z,5.77
2018-02-04T01:41:25.197Z,5.13
2018-02-04T01:43:53.579Z,5.20
2018-02-04T01:46:22.062Z,5.60
2018-02-04T01:48:50.596Z,6.33
2018-02-04T01:51:18.637Z,5.87
2018-02-04T01:53:47.062Z,5.27
2018-02-04T01:56:14.916Z,6.30
2018-02-04T01:58:47.692Z,5.30
2018-02-04T02:01:21.892Z,5.80
2018-02-04T02:03:50.423Z,4.07
2018-02-04T02:06:18.358Z,4.33
2018-02-04T02:08:47.591Z,5.67
2018-02-04T02:11:15.364Z,5.93
2018-02-04T02:13:44.137Z,4.43
2018-02-04T02:16:12.005Z,6.10
2018-02-04T02:18:40.050Z,4.23
2018-02-04T02:21:08.562Z,4.97
2018-02-04T02:23:37.654Z,5.10
2018-02-04T02:26:07.326Z,4.40
2018-02-04T02:28:35.264Z,4.57
2018-02-04T02:31:04.542Z,5.00
2018-02-04T02:33:32.417Z,5.27
2018-02-04T02:36:00.980Z,6.37
2018-02-04T02:38:28.972Z,4.47
2018-02-04T02:40:56.667Z,3.30
2018-02-04T02:43:24.410Z,3.83
2018-02-04T02:45:52.899Z,4.00
2018-02-04T02:48:21.271Z,3.77
2018-02-04T02:50:49.786Z,3.80
2018-02-04T02:53:17.525Z,5.03
2018-02-04T02:55:46.030Z,4.43
2018-02-04T02:58:13.754Z,3.27
2018-02-04T03:00:42.248Z,4.83
2018-02-04T03:03:10.185Z,4.10
2018-02-04T03:05:38.765Z,3.70
2018-02-04T03:08:07.455Z,6.13
2018-02-04T03:10:35.939Z,5.77
2018-02-04T03:13:05.289Z,3.37
2018-02-04T03:15:33.878Z,4.07
2018-02-04T03:18:01.920Z,3.63
2018-02-04T03:20:30.384Z,3.63
2018-02-04T03:22:58.209Z,5.33
2018-02-04T03:25:25.971Z,4.10
2018-02-04T03:27:55.120Z,4.20
2018-02-04T03:30:23.753Z,3.77
2018-02-04T03:32:51.757Z,5.53
2018-02-04T03:35:20.157Z,7.77
2018-02-04T03:37:47.899Z,8.63
2018-02-04T03:40:15.908Z,6.07
2018-02-04T03:42:43.726Z,4.70
2018-02-04T03:45:12.858Z,5.27
2018-02-04T03:47:41.450Z,6.07
2018-02-04T03:50:09.237Z,5.43
2018-02-04T03:52:37.769Z,4.83
2018-02-04T03:55:06.712Z,4.03
2018-02-04T03:57:34.468Z,4.80
2018-02-04T04:00:02.338Z,5.30
2018-02-04T04:02:30.693Z,4.70
2018-02-04T04:04:58.507Z,4.33
2018-02-04T04:07:26.301Z,4.53
2018-02-04T04:09:54.964Z,4.50
2018-02-04T04:12:23.284Z,5.03
2018-02-04T04:14:51.561Z,4.47
2018-02-04T04:17:20.067Z,5.23
2018-02-04T04:19:47.778Z,5.27
2018-02-04T04:22:15.539Z,6.50
2018-02-04T04:24:43.541Z,5.20
2018-02-04T04:27:11.277Z,6.97
2018-02-04T04:29:39.712Z,6.63
2018-02-04T04:32:07.371Z,6.17
2018-02-04T04:34:35.913Z,5.80
2018-02-04T04:37:03.608Z,6.30
2018-02-04T04:39:31.381Z,7.27
2018-02-04T04:44:40.768Z,5.67
2018-02-04T04:47:08.766Z,4.87
2018-02-04T04:49:37.989Z,5.47
2018-02-04T04:52:05.869Z,7.43
2018-02-04T04:54:34.448Z,5.63
2018-02-04T04:57:02.942Z,6.50
2018-02-04T04:59:30.850Z,5.50
2018-02-04T05:01:59.761Z,5.30
2018-02-04T05:04:27.503Z,4.87
2018-02-04T05:06:55.356Z,6.33
2018-02-04T05:09:24.221Z,5.73
2018-02-04T05:11:52.327Z,6.27
2018-02-04T05:14:20.225Z,6.57
2018-02-04T05:16:48.089Z,6.33
2018-02-04T05:19:15.851Z,5.70
2018-02-04T05:21:43.630Z,7.40
2018-02-04T05:24:11.433Z,5.87
2018-02-04T05:26:39.987Z,5.53
2018-02-04T05:29:09.387Z,6.00
2018-02-04T05:31:38.176Z,6.00
2018-02-04T05:34:06.562Z,6.03
2018-02-04T05:36:34.360Z,6.53
2018-02-04T05:39:02.256Z,7.60
2018-02-04T05:41:30.083Z,5.10
2018-02-04T05:43:57.888Z,6.63
2018-02-04T05:46:25.757Z,5.63
2018-02-04T05:48:53.460Z,7.87
2018-02-04T05:51:22.046Z,7.93
2018-02-04T05:53:50.692Z,5.97
2018-02-04T05:56:19.101Z,6.17
2018-02-04T05:58:47.451Z,6.30
2018-02-04T06:01:15.199Z,5.90
2018-02-04T06:03:43.027Z,6.47
2018-02-04T06:06:11.703Z,5.60
2018-02-04T06:08:40.179Z,7.37
2018-02-04T06:11:08.834Z,6.57
2018-02-04T06:13:37.285Z,7.00
2018-02-04T06:16:05.293Z,7.03
2018-02-04T06:18:34.018Z,5.40
2018-02-04T06:21:02.056Z,7.50
2018-02-04T06:23:31.337Z,6.53
2018-02-04T06:26:00.790Z,7.13
2018-02-04T06:28:28.541Z,8.23
2018-02-04T06:30:57.311Z,7.83
2018-02-04T06:33:25.156Z,6.57
2018-02-04T06:35:53.927Z,7.20
2018-02-04T06:38:22.429Z,7.27
2018-02-04T06:40:50.916Z,7.33
2018-02-04T06:43:18.786Z,9.87
2018-02-04T06:45:47.468Z,7.53
2018-02-04T06:48:16.149Z,7.90
2018-02-04T06:50:45.575Z,8.67
2018-02-04T06:53:14.037Z,8.30
2018-02-04T06:55:42.820Z,6.03
2018-02-04T06:58:11.952Z,6.57
2018-02-04T07:00:39.753Z,6.40
2018-02-04T07:03:07.819Z,7.13
2018-02-04T07:05:36.559Z,7.77
2018-02-04T07:08:04.496Z,8.23
2018-02-04T07:10:33.819Z,6.27
2018-02-04T07:13:02.308Z,7.77
2018-02-04T07:15:30.950Z,7.00
2018-02-04T07:17:58.638Z,6.53
2018-02-04T07:20:27.035Z,6.53
2018-02-04T07:22:55.240Z,7.17
2018-02-04T07:25:25.109Z,8.23
2018-02-04T07:27:54.391Z,6.63
2018-02-04T07:30:23.553Z,7.97
2018-02-04T07:32:51.886Z,7.40
2018-02-04T07:35:20.626Z,6.57
2018-02-04T07:37:48.343Z,8.37
2018-02-04T07:40:17.286Z,6.63
2018-02-04T07:42:45.573Z,7.20
2018-02-04T07:45:14.917Z,8.77
2018-02-04T07:47:42.749Z,8.67
2018-02-04T07:50:11.360Z,8.37
2018-02-04T07:52:39.746Z,8.17
2018-02-04T07:55:08.317Z,7.40
2018-02-04T07:57:36.849Z,9.93
2018-02-04T08:00:04.813Z,7.27
2018-02-04T08:02:33.071Z,8.70
2018-02-04T08:05:00.853Z,7.57
2018-02-04T08:07:29.689Z,9.67
2018-02-04T08:09:58.444Z,8.23
2018-02-04T08:12:26.262Z,10.50
2018-02-04T08:14:54.281Z,9.73
2018-02-04T08:17:22.533Z,11.13
2018-02-04T08:19:50.301Z,10.03
2018-02-04T08:22:18.139Z,9.93
2018-02-04T08:24:47.269Z,11.33
2018-02-04T08:27:15.856Z,11.07
2018-02-04T08:29:43.726Z,11.97
2018-02-04T08:32:12.314Z,10.80
2018-02-04T08:34:40.842Z,10.23
2018-02-04T08:37:09.395Z,11.47
2018-02-04T08:39:37.726Z,13.20
2018-02-04T08:42:08.653Z,12.57
2018-02-04T08:44:36.428Z,12.53
2018-02-04T08:47:04.150Z,11.90
2018-02-04T08:49:32.059Z,12.97
2018-02-04T08:52:00.804Z,15.20
2018-02-04T08:54:30.293Z,14.40
2018-02-04T08:56:58.429Z,18.80
2018-02-04T08:59:26.794Z,15.80
2018-02-04T09:01:54.577Z,14.37
2018-02-04T09:04:22.803Z,21.93
2018-02-04T09:06:50.673Z,23.10
2018-02-04T09:09:18.469Z,19.87
2018-02-04T09:11:46.440Z,16.13
2018-02-04T09:14:14.300Z,18.50
2018-02-04T09:16:42.173Z,20.67
2018-02-04T09:19:09.969Z,19.53
2018-02-04T09:21:38.463Z,19.70
2018-02-04T09:24:07.565Z,20.27
2018-02-04T09:26:35.844Z,23.10
2018-02-04T09:29:03.602Z,20.23
2018-02-04T09:31:32.973Z,20.23
2018-02-04T09:34:03.135Z,22.47
2018-02-04T09:36:32.582Z,17.30
2018-02-04T09:39:01.173Z,19.77
2018-02-04T09:41:29.851Z,16.40
2018-02-04T09:43:59.064Z,15.47
2018-02-04T09:46:26.915Z,15.47
2018-02-04T09:48:54.628Z,13.77
2018-02-04T09:51:22.669Z,12.97
2018-02-04T09:53:52.081Z,15.37
2018-02-04T09:56:20.208Z,12.00
2018-02-04T09:58:48.745Z,12.43
2018-02-04T10:01:16.505Z,12.90
2018-02-04T10:03:46.215Z,11.03
2018-02-04T10:06:15.460Z,9.37
2018-02-04T10:08:43.593Z,9.77
2018-02-04T10:11:12.340Z,9.43
2018-02-04T10:13:40.712Z,9.83
2018-02-04T10:16:10.019Z,7.93
2018-02-04T10:18:40.523Z,8.87
2018-02-04T10:21:08.396Z,7.57
2018-02-04T10:23:39.062Z,7.70
2018-02-04T10:26:06.987Z,6.97
2018-02-04T10:28:35.880Z,6.37
2018-02-04T10:31:03.984Z,6.43
2018-02-04T10:33:31.810Z,4.93
2018-02-04T10:38:33.699Z,6.67
2018-02-04T10:41:02.669Z,4.53
2018-02-04T10:43:30.971Z,4.97
2018-02-04T10:46:00.666Z,5.23
2018-02-04T10:48:28.436Z,4.47
2018-02-04T10:51:03.828Z,4.83
2018-02-04T10:53:33.339Z,4.27
2018-02-04T10:56:01.064Z,5.83
2018-02-04T10:58:30.406Z,4.40
2018-02-04T11:00:58.960Z,4.73
2018-02-04T11:03:28.036Z,4.37
2018-02-04T11:05:55.808Z,4.03
2018-02-04T11:08:23.845Z,4.87
2018-02-04T11:10:52.231Z,4.87
2018-02-04T11:13:21.218Z,4.53
2018-02-04T11:15:49.270Z,5.80
2018-02-04T11:18:19.010Z,3.93
2018-02-04T11:20:46.873Z,4.43
2018-02-04T11:23:15.501Z,3.90
2018-02-04T11:25:44.759Z,4.20
2018-02-04T11:28:12.506Z,5.00
2018-02-04T11:30:40.272Z,5.07
2018-02-04T11:33:08.938Z,4.70
2018-02-04T11:35:36.926Z,3.97
2018-02-04T11:38:04.924Z,6.60
2018-02-04T11:40:33.377Z,5.07
2018-02-04T11:43:01.407Z,4.70
2018-02-04T11:45:29.344Z,4.23
2018-02-04T11:47:57.934Z,5.63
2018-02-04T11:50:26.300Z,4.37
2018-02-04T11:52:54.805Z,5.00
2018-02-04T11:55:22.633Z,4.27
2018-02-04T11:57:50.516Z,5.07
2018-02-04T12:00:18.245Z,6.37
2018-02-04T12:02:46.437Z,5.37
2018-02-04T12:05:15.562Z,6.10
2018-02-04T12:07:43.352Z,5.20
2018-02-04T12:10:11.305Z,4.97
2018-02-04T12:12:40.375Z,4.50
2018-02-04T12:15:09.317Z,4.87
2018-02-04T12:17:37.112Z,4.20
2018-02-04T12:20:04.965Z,5.33
2018-02-04T12:22:33.763Z,4.13
2018-02-04T12:25:02.273Z,6.03
2018-02-04T12:27:31.002Z,4.10
2018-02-04T12:29:58.794Z,3.47
2018-02-04T12:32:26.906Z,3.33
2018-02-04T12:34:55.949Z,3.90
2018-02-04T12:37:24.681Z,3.23
2018-02-04T12:39:52.496Z,4.20
2018-02-04T12:42:20.726Z,4.33
2018-02-04T12:44:49.858Z,4.80
2018-02-04T12:47:17.637Z,5.30
2018-02-04T12:49:45.284Z,5.67
2018-02-04T12:52:13.155Z,4.90
2018-02-04T12:54:41.154Z,4.87
2018-02-04T12:57:10.556Z,5.17
2018-02-04T12:59:39.043Z,4.70
2018-02-04T13:02:08.105Z,23.60
2018-02-04T13:04:36.380Z,6.60
2018-02-04T13:07:04.461Z,5.07
2018-02-04T13:09:32.313Z,5.97
2018-02-04T13:12:00.211Z,5.83
2018-02-04T13:14:29.649Z,5.10
2018-02-04T13:16:58.395Z,6.37
2018-02-04T13:19:27.324Z,6.63
2018-02-04T13:21:55.287Z,5.07
2018-02-04T13:24:23.117Z,4.80
2018-02-04T13:26:51.792Z,4.67
2018-02-04T13:29:20.238Z,3.67
2018-02-04T13:31:48.019Z,3.90
2018-02-04T13:34:15.757Z,4.27
2018-02-04T13:36:43.562Z,3.93
2018-02-04T13:39:12.232Z,4.17
2018-02-04T13:41:40.405Z,4.40
2018-02-04T13:44:08.396Z,4.53
2018-02-04T13:46:36.245Z,4.70
2018-02-04T13:49:04.925Z,6.80
2018-02-04T13:51:32.921Z,5.73
2018-02-04T13:54:01.047Z,4.40
2018-02-04T13:56:29.434Z,6.67
2018-02-04T13:58:57.212Z,5.53
2018-02-04T14:01:25.848Z,7.17
2018-02-04T14:03:54.513Z,6.93
2018-02-04T14:06:23.102Z,4.33
2018-02-04T14:08:50.862Z,6.33
2018-02-04T14:11:18.739Z,5.67
2018-02-04T14:13:46.436Z,5.70
2018-02-04T14:16:14.308Z,4.40
2018-02-04T14:18:42.026Z,7.30
2018-02-04T14:21:10.660Z,5.90
2018-02-04T14:23:38.744Z,4.67
2018-02-04T14:26:06.596Z,5.30
2018-02-04T14:28:35.280Z,6.20
2018-02-04T14:31:03.121Z,5.73
2018-02-04T14:33:31.810Z,6.30
2018-02-04T14:35:59.854Z,5.73
2018-02-04T14:38:28.734Z,16.30
2018-02-04T14:40:57.394Z,5.30
2018-02-04T14:43:26.072Z,5.70
2018-02-04T14:45:55.291Z,5.17
2018-02-04T14:48:24.152Z,8.13
2018-02-04T14:50:52.064Z,6.03
2018-02-04T14:53:20.194Z,6.60
2018-02-04T14:55:48.050Z,7.23
2018-02-04T14:58:16.925Z,7.67
2018-02-04T15:00:45.213Z,6.50
2018-02-04T15:03:13.186Z,8.27
2018-02-04T15:05:41.026Z,7.93
2018-02-04T15:08:09.840Z,9.47
2018-02-04T15:10:38.442Z,8.17
2018-02-04T15:13:06.384Z,9.17
2018-02-04T15:15:34.151Z,7.10
2018-02-04T15:18:03.346Z,10.47
2018-02-04T15:20:31.953Z,8.47
2018-02-04T15:22:59.652Z,8.90
2018-02-04T15:25:27.431Z,8.70
2018-02-04T15:27:55.342Z,8.77
2018-02-04T15:30:24.213Z,10.00
2018-02-04T15:32:52.374Z,8.97
2018-02-04T15:37:48.546Z,9.30
2018-02-04T15:40:17.033Z,11.33
2018-02-04T15:42:46.357Z,13.97
2018-02-04T15:45:14.484Z,13.00
2018-02-04T15:47:43.881Z,12.17
2018-02-04T15:50:12.377Z,11.40
2018-02-04T15:52:41.901Z,11.70
2018-02-04T15:55:10.038Z,12.20
2018-02-04T15:57:37.828Z,13.23
2018-02-04T16:00:05.652Z,14.47
2018-02-04T16:02:33.529Z,13.13
2018-02-04T16:05:01.433Z,15.10
2018-02-04T16:07:29.311Z,13.73
2018-02-04T16:09:58.171Z,15.67
2018-02-04T16:12:26.734Z,16.90
2018-02-04T16:14:54.452Z,19.97
2018-02-04T16:17:22.268Z,16.63
2018-02-04T16:19:50.851Z,18.30
2018-02-04T16:22:18.791Z,18.50
2018-02-04T16:24:47.520Z,17.57
2018-02-04T16:27:15.367Z,17.33
2018-02-04T16:29:43.475Z,15.70
2018-02-04T16:32:11.570Z,17.73
2018-02-04T16:34:40.115Z,17.47
2018-02-04T16:37:08.706Z,16.13
2018-02-04T16:39:37.321Z,17.43
2018-02-04T16:42:05.532Z,16.93
2018-02-04T16:44:33.512Z,19.43
2018-02-04T16:47:03.009Z,18.53
2018-02-04T16:49:30.977Z,19.20
2018-02-04T16:52:00.506Z,21.33
2018-02-04T16:54:28.482Z,16.47
2018-02-04T16:56:57.965Z,20.60
2018-02-04T16:59:26.598Z,19.77
2018-02-04T17:01:54.923Z,22.33
2018-02-04T17:04:22.784Z,21.80
2018-02-04T17:06:51.246Z,19.17
2018-02-04T17:09:19.018Z,20.97
2018-02-04T17:11:47.517Z,18.93
2018-02-04T17:14:16.290Z,21.10
2018-02-04T17:16:44.247Z,24.07
2018-02-04T17:19:12.328Z,21.93
2018-02-04T17:21:40.293Z,18.53
2018-02-04T17:24:08.157Z,23.13
2018-02-04T17:26:37.178Z,21.73
2018-02-04T17:29:06.379Z,29.53
2018-02-04T17:31:35.341Z,19.37
2018-02-04T17:34:08.773Z,23.83
2018-02-04T17:36:37.384Z,26.47
2018-02-04T17:39:05.426Z,23.63
2018-02-04T17:41:35.988Z,25.23
2018-02-04T17:44:04.498Z,26.73
2018-02-04T17:46:32.298Z,25.27
2018-02-04T17:49:00.691Z,23.53
2018-02-04T17:51:30.010Z,28.23
2018-02-04T17:53:59.144Z,27.93
2018-02-04T17:56:27.104Z,31.33
2018-02-04T17:58:56.269Z,26.67
2018-02-04T18:01:24.906Z,25.77
2018-02-04T18:03:52.796Z,33.37
2018-02-04T18:06:22.266Z,29.20
2018-02-04T18:08:50.324Z,27.00
2018-02-04T18:11:18.906Z,28.63
2018-02-04T18:13:46.773Z,28.27
2018-02-04T18:16:14.742Z,28.83
2018-02-04T18:18:43.552Z,30.87
2018-02-04T18:21:12.230Z,28.07
2018-02-04T18:23:41.740Z,35.60
2018-02-04T18:26:10.305Z,32.83
2018-02-04T18:28:38.281Z,29.37
2018-02-04T18:31:06.944Z,34.53
2018-02-04T18:33:34.923Z,36.87
2018-02-04T18:36:03.849Z,29.83
2018-02-04T18:38:32.195Z,33.23
2018-02-04T18:40:59.916Z,35.60
2018-02-04T18:43:27.923Z,36.47
2018-02-04T18:45:55.867Z,35.60
2018-02-04T18:48:24.470Z,35.60
2018-02-04T18:50:53.093Z,39.57
2018-02-04T18:53:21.030Z,36.23
2018-02-04T18:55:49.912Z,41.90
2018-02-04T18:58:18.597Z,37.03
2018-02-04T19:00:46.451Z,39.33
2018-02-04T19:03:15.049Z,36.60
2018-02-04T19:05:43.869Z,39.40
2018-02-04T19:08:12.296Z,40.90
2018-02-04T19:10:40.382Z,37.63
2018-02-04T19:13:08.555Z,42.30
2018-02-04T19:15:36.252Z,44.53
2018-02-04T19:18:04.922Z,42.03
2018-02-04T19:20:32.697Z,46.20
2018-02-04T19:23:00.533Z,43.27
2018-02-04T19:25:29.270Z,47.90
2018-02-04T19:27:58.541Z,41.80
2018-02-04T19:30:26.510Z,42.87
2018-02-04T19:32:55.180Z,45.80
2018-02-04T19:35:23.679Z,42.67
2018-02-04T19:37:52.650Z,44.07
2018-02-04T19:40:21.357Z,41.17
2018-02-04T19:42:49.043Z,48.17
2018-02-04T19:45:18.444Z,43.73
2018-02-04T19:47:47.073Z,43.37
2018-02-04T19:50:15.579Z,42.87
2018-02-04T19:52:44.197Z,41.33
2018-02-04T19:55:13.341Z,41.97
2018-02-04T19:57:41.031Z,41.10
2018-02-04T20:00:09.780Z,44.00
2018-02-04T20:02:38.228Z,42.03
2018-02-04T20:05:06.784Z,45.13
2018-02-04T20:07:35.741Z,41.90
2018-02-04T20:10:03.607Z,42.10
2018-02-04T20:12:31.472Z,44.33
2018-02-04T20:14:59.331Z,40.00
2018-02-04T20:17:27.205Z,40.70
2018-02-04T20:19:54.948Z,44.23
2018-02-04T20:22:22.743Z,42.30
2018-02-04T20:24:50.875Z,46.60
2018-02-04T20:27:18.612Z,41.03
2018-02-04T20:29:46.605Z,41.67
2018-02-04T20:32:26.741Z,41.80
2018-02-04T20:34:55.161Z,59.23
2018-02-04T20:37:23.028Z,45.77
2018-02-04T20:39:51.431Z,41.47
2018-02-04T20:42:19.187Z,39.03
2018-02-04T20:44:47.951Z,38.97
2018-02-04T20:47:16.644Z,41.30
2018-02-04T20:49:45.220Z,41.37
2018-02-04T20:52:13.807Z,39.63
2018-02-04T20:54:41.616Z,39.37
2018-02-04T20:57:10.394Z,41.07
2018-02-04T20:59:38.888Z,48.00
2018-02-04T21:02:07.489Z,40.73
2018-02-04T21:04:35.403Z,37.03
2018-02-04T21:07:04.003Z,42.60
2018-02-04T21:09:32.671Z,37.57
2018-02-04T21:12:02.262Z,39.90
2018-02-04T21:14:30.123Z,41.67
2018-02-04T21:16:57.995Z,45.20
2018-02-04T21:19:26.998Z,39.33
2018-02-04T21:21:54.860Z,40.97
2018-02-04T21:24:23.540Z,43.80
2018-02-04T21:26:51.609Z,41.20
2018-02-04T21:29:19.457Z,47.20
2018-02-04T21:31:47.522Z,43.57
2018-02-04T21:34:15.237Z,42.17
2018-02-04T21:36:43.993Z,47.43
2018-02-04T21:39:11.969Z,46.40
2018-02-04T21:41:39.829Z,42.33
2018-02-04T21:44:08.427Z,43.57
2018-02-04T21:46:36.276Z,45.83
2018-02-04T21:49:04.110Z,39.17
2018-02-04T21:51:32.719Z,43.40
2018-02-04T21:54:00.515Z,49.20
2018-02-04T21:56:28.310Z,47.43
2018-02-04T21:58:56.004Z,52.47
2018-02-04T22:01:24.469Z,43.97
2018-02-04T22:03:52.326Z,43.47
2018-02-04T22:06:20.399Z,45.07
2018-02-04T22:08:49.084Z,39.83
2018-02-04T22:11:16.841Z,50.40
2018-02-04T22:13:44.615Z,44.70
2018-02-04T22:16:13.157Z,50.07
2018-02-04T22:18:41.807Z,50.57
2018-02-04T22:21:10.595Z,46.73
2018-02-04T22:23:38.339Z,42.10
2018-02-04T22:26:06.842Z,45.60
2018-02-04T22:28:34.652Z,45.90
2018-02-04T22:31:03.141Z,47.93
2018-02-04T22:33:31.738Z,41.17
2018-02-04T22:35:59.504Z,44.13
2018-02-04T22:38:27.396Z,37.10
2018-02-04T22:40:55.165Z,44.67
2018-02-04T22:43:22.909Z,43.40
2018-02-04T22:45:50.696Z,43.17
2018-02-04T22:48:18.470Z,44.13
2018-02-04T22:50:47.378Z,46.93
2018-02-04T22:53:16.072Z,46.63
2018-02-04T22:55:45.387Z,43.83
2018-02-04T22:58:13.190Z,45.03
2018-02-04T23:00:41.032Z,41.83
2018-02-04T23:03:08.762Z,45.70
2018-02-04T23:05:37.507Z,44.17
2018-02-04T23:08:06.087Z,43.13
2018-02-04T23:10:34.875Z,46.87
2018-02-04T23:13:02.899Z,50.50
2018-02-04T23:15:30.812Z,50.73
2018-02-04T23:17:58.620Z,47.83
2018-02-04T23:20:28.520Z,44.93
2018-02-04T23:22:56.391Z,54.63
2018-02-04T23:25:24.167Z,53.37
2018-02-04T23:27:51.938Z,53.43
2018-02-04T23:30:19.767Z,57.50
2018-02-04T23:32:48.950Z,56.17
2018-02-04T23:35:17.632Z,52.70
2018-02-04T23:37:45.352Z,58.17
2018-02-04T23:40:14.168Z,54.70
2018-02-04T23:42:42.680Z,58.57
2018-02-04T23:45:11.005Z,49.90
2018-02-04T23:47:38.856Z,57.17
2018-02-04T23:50:07.675Z,53.80
2018-02-04T23:52:36.345Z,54.83
2018-02-04T23:55:04.170Z,56.53
2018-02-04T23:57:32.596Z,53.30
